Chippewa Falls, WI (54729)

5:34 PM CDT on August 27, 2016 (GMT -0500)
Bateman | | Change Station

Elev 928 ft 44.93 °N, 91.27 °W | Updated 8 seconds ago

Rain
Rain
65.3 °F
Feels Like 65.3 °F
N
2.3
Wind Variable Wind from SSE
Gusts 0.0 mph

Today
High -- | Low -- °F
--% Chance of Precip.
Yesterday
High -- | Low -- °F
Precip. -- in
Pressure 30.01 in
Visibility 9.0 miles
Clouds Overcast 1300 ft
Dew Point 64 °F
Humidity 94%
Rainfall 0.02 in
Snow Depth Not available.
6:22 AM 7:50 PM
Waning Crescent, 21% visible
METAR KEAU 272156Z 13004KT 9SM OVC013 18/17 A3001 RMK AO2 SLP160 T01830172
Pressure 30.01 in
Visibility 9.0 miles
Clouds Overcast 1300 ft
Dew Point 64 °F
Humidity 94%
Rainfall 0.02 in
Snow Depth Not available.
6:22 AM 7:50 PM
Waning Crescent, 21% visible
METAR KEAU 272156Z 13004KT 9SM OVC013 18/17 A3001 RMK AO2 SLP160 T01830172

10-Day Weather Forecast

Almanac

Astronomy

Aug. 27, 2016 Rise Set
Actual Time
Civil Twilight
Nautical Twilight
Astronomical Twilight
Moon
Length of Visible Light
Length of Day
Tomorrow will be .
, % of the Moon is Illuminated

Today's Extremes

State Highs State Lows

Community

WunderPhotos

Upload Photos

1,935,457 photos uploaded!

WunderBlog® & News

Nearby

Air Quality

  Air Quality AQ Index Pollutant
Not available.

Snow Depth

Station Depth Elevation

Earthquake Activity

City Distance Mag. Time & Date
Minimum magnitude displayed is 2.5.

Coastal Water Temperatures

Place Temperature

Stations

Nearby Weather Stations

Station Location Temp. Windchill Dew Point Humidity Wind Precip. Elev Updated Type
                   

Watches & Warnings

There are currently no watches in effect.